Archival Weather

Chicago O'Hare International

Chicago, Illinois (KORD)

Report from: Friday, December 2, 2022 6:51 PM CST
Current time: Friday, June 21, 2024 1:36 AM CDT

Current weather – Weather history – Daily summaries
Weather forecast

Temperature11.1°C (52.0°F)
Dew point3.9°C (39.0°F)
Winds 12 kts (6.2 m/s, 13.8 mph) South-Southwest (210°)
Wind gusts 27 kts (13.9 m/s, 31.1 mph)
Peak wind 31 kts (15.9 m/s, 35.7 mph) South-Southwest (210°) at 23:55
Visibility10 mi. (16.1 km)
Clouds Ceiling: Overcast 3,600 ft. (1,097 m)
Altimeter29.68 in.Hg (1005 mB)
Relative humidity61 %
Density altitude-82 ft. (-25 m)
Sea-level pressure100.6 kPa (1006 mB, 29.69 in.Hg)
Remarks Automated weather observing station with precipitation discriminator
Flight conditions Visual Meteorological Conditions
Raw dataKORD 030051Z 21012G27KT 10SM OVC036 11/04 A2968 RMK AO2 PK WND 21031/2355 SLP055 T01110039
An error has occurred. This application may no longer respond until reloaded. Reload 🗙